MET'MAP v2.0
soon released !

Expected late october,
this new version will be
more efficient, smarter,
and hosted on a brand new
server x3 powerfull...
...and still free !


Not compatible ?
Try the mobile version !

LOG IN : | Subscribe | Disclaimer | Who is Orbifly ? |
ICAO code :

TAF - LTAC Ankara Esenboga - 02 Jun 2020 04:44 UTC - Data Source NOAA   


- Airport Elevation : 3125 ft
- IATA code : ESB
- No reported NOTAMs.


LTAC - Ankara Esenboga

Latest METAR recorded : 2015/08/11 07:50 LTAC 110750Z VRB05KT 9999 SCT040 SCT100 27/14 Q1013 NOSIG
TAF TAF LTAC
Valid from the 02 at 00:00 until the 03 at 00:00 UTC


012240Z 0200/0224 VRB02KT 9999 SCT035 BKN090
TEMPO 0200/0204 -SHRA BKN025 BKN080
TEMPO 0205/0209 -SHRA BKN025 BKN080
BECMG 0206/0208 28012KT
TEMPO 0210/0214 -SHRA BKN025 BKN080
BECMG 0216/0218 VRB02KT

Source NOAA


MET'MAP, your aeronautical weather chart ! - Copyright ORBIFLY December 2007

Programming & Development : Alexandra Zaïnal
Co-Developer : Marc-Olivier Méhu
Technical & hardware support : Manuel Goepfert
Concept & Financing : Baudouin d'Aumeries